createdAt,value
2019-02-06T00:02:12.284Z,3.10
2019-02-06T00:04:40.911Z,1.67
2019-02-06T00:07:28.771Z,2.95
2019-02-06T00:09:57.339Z,3.35
2019-02-06T00:12:25.830Z,2.83
2019-02-06T00:14:54.350Z,2.25
2019-02-06T00:17:22.893Z,4.55
2019-02-06T00:19:51.334Z,3.17
2019-02-06T00:22:19.798Z,5.10
2019-02-06T00:24:48.318Z,1.90
2019-02-06T00:27:16.866Z,2.52
2019-02-06T00:29:45.473Z,2.22
2019-02-06T00:32:14.036Z,2.55
2019-02-06T00:34:42.572Z,2.35
2019-02-06T00:37:11.103Z,4.10
2019-02-06T00:39:39.634Z,3.72
2019-02-06T00:42:08.150Z,3.72
2019-02-06T00:44:36.999Z,0.80
2019-02-06T00:47:05.519Z,2.27
2019-02-06T00:49:34.037Z,3.22
2019-02-06T00:52:02.502Z,3.67
2019-02-06T00:54:31.025Z,1.37
2019-02-06T00:57:18.976Z,1.22
2019-02-06T00:59:49.538Z,2.70
2019-02-06T01:02:18.015Z,2.27
2019-02-06T01:04:46.587Z,1.75
2019-02-06T01:07:15.170Z,2.15
2019-02-06T01:09:43.706Z,3.10
2019-02-06T01:12:12.591Z,1.87
2019-02-06T01:14:41.126Z,3.33
2019-02-06T01:17:09.643Z,3.77
2019-02-06T01:19:44.886Z,1.80
2019-02-06T01:22:13.410Z,2.80
2019-02-06T01:24:41.945Z,1.90
2019-02-06T01:27:10.854Z,5.08
2019-02-06T01:29:39.366Z,1.90
2019-02-06T01:32:08.239Z,2.33
2019-02-06T01:34:36.763Z,3.22
2019-02-06T01:37:05.230Z,2.35
2019-02-06T01:39:33.814Z,1.70
2019-02-06T01:42:02.286Z,5.42
2019-02-06T01:44:50.531Z,2.40
2019-02-06T01:47:30.974Z,3.15
2019-02-06T01:49:59.492Z,2.17
2019-02-06T01:52:28.501Z,1.87
2019-02-06T01:54:57.191Z,1.47
2019-02-06T01:57:45.068Z,0.85
2019-02-06T02:00:19.176Z,3.67
2019-02-06T02:02:47.763Z,2.30
2019-02-06T02:05:18.739Z,1.70
2019-02-06T02:08:06.615Z,1.45
2019-02-06T02:10:35.158Z,3.50
2019-02-06T02:13:23.016Z,3.08
2019-02-06T02:15:51.643Z,1.57
2019-02-06T02:18:22.002Z,2.22
2019-02-06T02:20:51.371Z,1.67
2019-02-06T02:23:20.419Z,2.08
2019-02-06T02:25:48.893Z,1.70
2019-02-06T02:28:17.533Z,2.40
2019-02-06T02:30:47.697Z,2.83
2019-02-06T02:33:16.140Z,2.05
2019-02-06T02:35:44.691Z,1.82
2019-02-06T02:38:13.207Z,2.50
2019-02-06T02:40:41.810Z,3.20
2019-02-06T02:43:10.970Z,5.10
2019-02-06T02:45:58.775Z,1.02
2019-02-06T02:48:27.226Z,2.17
2019-02-06T02:50:55.798Z,1.05
2019-02-06T02:53:24.323Z,1.60
2019-02-06T02:55:53.139Z,2.02
2019-02-06T02:58:21.826Z,4.33
2019-02-06T03:01:10.140Z,4.25
2019-02-06T03:03:42.994Z,0.60
2019-02-06T03:06:11.879Z,3.30
2019-02-06T03:08:40.493Z,3.40
2019-02-06T03:11:09.157Z,1.55
2019-02-06T03:13:37.678Z,2.30
2019-02-06T03:16:06.210Z,1.15
2019-02-06T03:18:34.663Z,3.22
2019-02-06T03:21:03.190Z,0.98
2019-02-06T03:23:31.699Z,0.75
2019-02-06T03:26:00.222Z,1.45
2019-02-06T03:28:28.759Z,2.12
2019-02-06T03:30:57.275Z,2.15
2019-02-06T03:33:25.866Z,1.70
2019-02-06T03:35:54.404Z,1.05
2019-02-06T03:38:23.221Z,1.90
2019-02-06T03:40:51.765Z,3.42
2019-02-06T03:43:20.348Z,1.77
2019-02-06T03:45:48.823Z,1.35
2019-02-06T03:48:17.281Z,1.75
2019-02-06T03:50:45.799Z,2.10
2019-02-06T03:53:14.343Z,2.10
2019-02-06T03:55:43.060Z,0.62
2019-02-06T03:58:11.535Z,3.12
2019-02-06T04:00:40.078Z,1.12
2019-02-06T04:03:08.941Z,3.47
2019-02-06T04:05:37.801Z,3.60
2019-02-06T04:08:06.332Z,1.82
2019-02-06T04:10:35.170Z,2.02
2019-02-06T04:13:06.227Z,3.17
2019-02-06T04:15:55.817Z,1.85
2019-02-06T04:18:24.286Z,1.98
2019-02-06T04:20:52.741Z,1.52
2019-02-06T04:23:21.282Z,2.02
2019-02-06T04:25:49.796Z,2.98
2019-02-06T04:28:37.988Z,2.17
2019-02-06T04:31:06.634Z,2.52
2019-02-06T04:33:40.556Z,1.17
2019-02-06T04:36:09.169Z,3.17
2019-02-06T04:38:37.682Z,3.12
2019-02-06T04:41:06.365Z,0.82
2019-02-06T04:43:34.832Z,1.47
2019-02-06T04:46:03.559Z,1.22
2019-02-06T04:48:32.430Z,1.95
2019-02-06T04:51:00.973Z,2.08
2019-02-06T04:53:29.494Z,1.42
2019-02-06T04:55:58.070Z,2.17
2019-02-06T04:58:26.607Z,3.25
2019-02-06T05:00:55.052Z,2.65
2019-02-06T05:03:25.740Z,1.80
2019-02-06T05:05:53.839Z,0.75
2019-02-06T05:08:22.351Z,2.77
2019-02-06T05:10:56.875Z,0.68
2019-02-06T05:13:25.395Z,2.55
2019-02-06T05:15:53.984Z,3.77
2019-02-06T05:18:22.456Z,1.10
2019-02-06T05:20:51.382Z,1.50
2019-02-06T05:23:19.907Z,1.17
2019-02-06T05:25:48.736Z,2.00
2019-02-06T05:28:18.292Z,1.37
2019-02-06T05:30:46.876Z,2.25
2019-02-06T05:33:24.634Z,1.85
2019-02-06T05:35:53.154Z,3.47
2019-02-06T05:38:21.716Z,1.65
2019-02-06T05:40:50.807Z,2.55
2019-02-06T05:43:19.264Z,2.62
2019-02-06T05:45:47.781Z,0.60
2019-02-06T05:48:16.334Z,3.30
2019-02-06T05:50:44.844Z,2.27
2019-02-06T05:53:13.291Z,2.83
2019-02-06T05:55:41.826Z,4.17
2019-02-06T05:58:10.405Z,1.07
2019-02-06T06:00:40.680Z,1.87
2019-02-06T06:03:09.212Z,2.87
2019-02-06T06:05:37.801Z,0.60
2019-02-06T06:08:06.719Z,2.85
2019-02-06T06:10:35.234Z,1.07
2019-02-06T06:13:03.948Z,2.12
2019-02-06T06:15:32.463Z,1.02
2019-02-06T06:18:00.915Z,0.93
2019-02-06T06:20:30.432Z,1.35
2019-02-06T06:22:59.016Z,1.27
2019-02-06T06:25:28.130Z,2.33
2019-02-06T06:27:56.891Z,0.90
2019-02-06T06:30:25.479Z,0.75
2019-02-06T06:32:54.058Z,2.00
2019-02-06T06:35:22.522Z,0.90
2019-02-06T06:37:59.406Z,3.90
2019-02-06T06:40:22.724Z,0.95
2019-02-06T06:42:51.567Z,1.35
2019-02-06T06:45:22.379Z,2.52
2019-02-06T06:47:50.968Z,1.77
2019-02-06T06:50:21.744Z,0.95
2019-02-06T06:52:50.802Z,1.87
2019-02-06T06:55:19.620Z,1.30
2019-02-06T06:57:48.199Z,2.65
2019-02-06T07:00:19.429Z,2.55
2019-02-06T07:02:47.960Z,1.15
2019-02-06T07:05:16.947Z,2.85
2019-02-06T07:07:45.651Z,1.95
2019-02-06T07:10:19.426Z,3.67
2019-02-06T07:12:48.035Z,0.98
2019-02-06T07:15:24.791Z,2.72
2019-02-06T07:17:53.492Z,1.42
2019-02-06T07:20:23.379Z,2.85
2019-02-06T07:22:51.904Z,2.00
2019-02-06T07:25:20.753Z,1.35
2019-02-06T07:27:49.338Z,2.92
2019-02-06T07:30:26.010Z,0.88
2019-02-06T07:32:54.683Z,3.08
2019-02-06T07:35:23.370Z,1.70
2019-02-06T07:37:52.072Z,2.47
2019-02-06T07:40:21.019Z,3.22
2019-02-06T07:42:49.523Z,1.62
2019-02-06T07:45:24.207Z,1.40
2019-02-06T07:47:52.739Z,4.78
2019-02-06T07:50:24.335Z,2.62
2019-02-06T07:52:52.802Z,2.27
2019-02-06T07:55:21.391Z,3.37
2019-02-06T07:57:50.076Z,4.70
2019-02-06T08:00:18.685Z,4.62
2019-02-06T08:02:47.884Z,4.28
2019-02-06T08:05:20.858Z,1.95
2019-02-06T08:07:50.041Z,3.67
2019-02-06T08:10:27.359Z,6.22
2019-02-06T08:12:55.998Z,3.95
2019-02-06T08:15:43.788Z,1.62
2019-02-06T08:18:15.065Z,4.65
2019-02-06T08:20:43.582Z,2.72
2019-02-06T08:23:12.030Z,2.52
2019-02-06T08:25:40.494Z,4.72
2019-02-06T08:28:09.047Z,4.62
2019-02-06T08:30:39.810Z,4.35
2019-02-06T08:33:08.416Z,3.93
2019-02-06T08:35:56.203Z,3.52
2019-02-06T08:38:24.765Z,2.80
2019-02-06T08:40:53.264Z,3.73
2019-02-06T08:43:21.703Z,4.80
2019-02-06T08:45:50.644Z,5.47
2019-02-06T08:48:19.326Z,3.57
2019-02-06T08:50:47.947Z,3.40
2019-02-06T08:53:16.577Z,4.70
2019-02-06T08:55:45.091Z,4.10
2019-02-06T08:58:13.931Z,5.07
2019-02-06T09:00:42.610Z,4.73
2019-02-06T09:03:30.786Z,6.10
2019-02-06T09:05:59.314Z,4.43
2019-02-06T09:08:27.782Z,4.30
2019-02-06T09:11:15.729Z,4.43
2019-02-06T09:13:44.197Z,5.57
2019-02-06T09:16:12.740Z,5.27
2019-02-06T09:18:41.228Z,5.60
2019-02-06T09:21:09.746Z,5.27
2019-02-06T09:23:38.203Z,5.33
2019-02-06T09:26:06.791Z,5.50
2019-02-06T09:28:37.343Z,7.00
2019-02-06T09:31:05.723Z,3.67
2019-02-06T09:33:34.387Z,6.00
2019-02-06T09:36:02.976Z,6.47
2019-02-06T09:38:31.508Z,4.10
2019-02-06T09:40:59.955Z,6.97
2019-02-06T09:43:29.513Z,6.07
2019-02-06T09:45:57.974Z,4.90
2019-02-06T09:48:26.482Z,6.70
2019-02-06T09:50:55.033Z,5.70
2019-02-06T09:53:23.586Z,4.13
2019-02-06T09:55:53.375Z,5.60
2019-02-06T09:58:22.149Z,5.60
2019-02-06T10:00:50.743Z,4.20
2019-02-06T10:03:19.174Z,5.47
2019-02-06T10:05:47.616Z,4.60
2019-02-06T10:08:16.168Z,6.23
2019-02-06T10:10:44.751Z,6.17
2019-02-06T10:13:16.382Z,8.30
2019-02-06T10:15:43.628Z,7.87
2019-02-06T10:18:12.066Z,7.43
2019-02-06T10:20:46.102Z,7.10
2019-02-06T10:23:14.951Z,4.70
2019-02-06T10:25:43.634Z,6.30
2019-02-06T10:28:12.235Z,5.60
2019-02-06T10:30:43.790Z,4.70
2019-02-06T10:33:12.370Z,5.33
2019-02-06T10:35:40.981Z,5.33
2019-02-06T10:38:09.869Z,4.33
2019-02-06T10:40:38.856Z,4.30
2019-02-06T10:43:32.043Z,3.37
2019-02-06T10:45:58.420Z,4.10
2019-02-06T10:48:26.926Z,3.87
2019-02-06T10:50:58.312Z,4.90
2019-02-06T10:53:25.627Z,4.93
2019-02-06T10:55:54.054Z,5.60
2019-02-06T10:58:22.517Z,5.17
2019-02-06T11:00:53.971Z,4.70
2019-02-06T11:03:22.472Z,4.50
2019-02-06T11:05:51.279Z,4.93
2019-02-06T11:08:19.955Z,5.03
2019-02-06T11:10:48.562Z,5.00
2019-02-06T11:13:17.512Z,5.50
2019-02-06T11:15:46.162Z,5.13
2019-02-06T11:18:14.624Z,4.93
2019-02-06T11:20:43.219Z,5.10
2019-02-06T11:23:11.816Z,6.40
2019-02-06T11:25:40.367Z,7.30
2019-02-06T11:28:09.014Z,6.27
2019-02-06T11:30:39.176Z,5.67
2019-02-06T11:33:08.043Z,5.80
2019-02-06T11:35:36.732Z,5.93
2019-02-06T11:38:06.609Z,6.53
2019-02-06T11:40:35.389Z,6.27
2019-02-06T11:43:04.260Z,5.10
2019-02-06T11:45:52.055Z,5.90
2019-02-06T11:48:39.829Z,5.10
2019-02-06T11:51:27.768Z,5.47
2019-02-06T11:53:56.289Z,6.57
2019-02-06T11:56:24.801Z,6.37
2019-02-06T11:58:53.340Z,6.83
2019-02-06T12:01:23.479Z,5.50
2019-02-06T12:03:52.315Z,5.90
2019-02-06T12:06:20.899Z,6.43
2019-02-06T12:08:49.558Z,6.83
2019-02-06T12:11:17.717Z,6.13
2019-02-06T12:13:46.154Z,5.83
2019-02-06T12:16:14.826Z,7.00
2019-02-06T12:19:02.846Z,6.00
2019-02-06T12:21:30.989Z,7.87
2019-02-06T12:23:59.432Z,8.03
2019-02-06T12:26:28.375Z,7.90
2019-02-06T12:28:57.047Z,8.73
2019-02-06T12:31:25.571Z,6.63
2019-02-06T12:33:54.309Z,7.67
2019-02-06T12:36:23.016Z,8.43
2019-02-06T12:38:53.734Z,8.60
2019-02-06T12:41:25.293Z,8.03
2019-02-06T12:43:53.810Z,6.40
2019-02-06T12:46:27.169Z,7.97
2019-02-06T12:48:55.704Z,6.13
2019-02-06T12:51:24.500Z,7.97
2019-02-06T12:53:53.156Z,6.70
2019-02-06T12:56:21.694Z,6.67
2019-02-06T12:58:50.279Z,8.00
2019-02-06T13:01:38.243Z,6.50
2019-02-06T13:04:06.810Z,6.40
2019-02-06T13:06:35.262Z,9.30
2019-02-06T13:09:05.241Z,8.00
2019-02-06T13:11:33.774Z,8.00
2019-02-06T13:14:02.303Z,6.83
2019-02-06T13:16:30.839Z,5.93
2019-02-06T13:18:59.820Z,7.50
2019-02-06T13:21:28.356Z,8.50
2019-02-06T13:24:16.138Z,8.20
2019-02-06T13:26:44.850Z,6.63
2019-02-06T13:29:13.292Z,8.10
2019-02-06T13:31:42.103Z,7.80
2019-02-06T13:34:10.638Z,9.50
2019-02-06T13:36:39.098Z,7.47
2019-02-06T13:39:10.008Z,6.40
2019-02-06T13:41:38.555Z,8.47
2019-02-06T13:44:07.068Z,8.37
2019-02-06T13:46:35.906Z,9.00
2019-02-06T13:49:04.789Z,5.40
2019-02-06T13:51:33.377Z,7.37
2019-02-06T13:54:01.992Z,7.27
2019-02-06T13:56:30.643Z,7.03
2019-02-06T13:58:59.279Z,7.23
2019-02-06T14:01:27.746Z,8.40
2019-02-06T14:03:56.187Z,9.03
2019-02-06T14:06:24.792Z,6.40
2019-02-06T14:08:53.443Z,7.90
2019-02-06T14:11:21.882Z,7.40
2019-02-06T14:13:50.416Z,6.57
2019-02-06T14:16:38.192Z,6.70
2019-02-06T14:19:09.594Z,7.40
2019-02-06T14:21:57.655Z,6.47
2019-02-06T14:24:29.686Z,5.80
2019-02-06T14:27:04.346Z,6.80
2019-02-06T14:29:41.911Z,7.30
2019-02-06T14:32:15.596Z,7.03
2019-02-06T14:35:24.035Z,5.23
2019-02-06T14:38:16.116Z,6.87
2019-02-06T14:41:14.936Z,5.90
2019-02-06T14:43:46.555Z,6.40
2019-02-06T14:46:23.733Z,10.97
2019-02-06T14:49:19.374Z,8.00
2019-02-06T14:52:02.406Z,6.50
2019-02-06T14:54:36.490Z,6.50
2019-02-06T14:57:22.863Z,6.23
2019-02-06T15:00:09.559Z,7.00
2019-02-06T15:02:41.102Z,6.90
2019-02-06T15:05:15.756Z,4.50
2019-02-06T15:07:47.349Z,12.30
2019-02-06T15:10:22.110Z,13.30
2019-02-06T15:13:02.738Z,5.97
2019-02-06T15:15:37.120Z,4.07
2019-02-06T15:18:30.083Z,6.30
2019-02-06T15:21:26.198Z,4.87
2019-02-06T15:24:17.110Z,5.20
2019-02-06T15:27:00.863Z,5.80
2019-02-06T15:29:35.380Z,7.50
2019-02-06T15:32:24.873Z,4.87
2019-02-06T15:34:56.783Z,8.63
2019-02-06T15:37:45.512Z,5.50
2019-02-06T15:40:43.802Z,2.93
2019-02-06T15:43:45.061Z,5.00
2019-02-06T15:46:33.767Z,3.90
2019-02-06T15:49:14.144Z,3.93
2019-02-06T15:52:04.951Z,3.03
2019-02-06T15:54:48.622Z,5.00
2019-02-06T15:57:50.469Z,3.53
2019-02-06T16:00:24.784Z,4.70
2019-02-06T16:03:08.439Z,3.37
2019-02-06T16:06:12.150Z,2.70
2019-02-06T16:08:52.649Z,3.73
2019-02-06T16:11:26.898Z,3.23
2019-02-06T16:13:58.515Z,3.20
2019-02-06T16:17:03.884Z,4.83
2019-02-06T16:20:05.649Z,3.40
2019-02-06T16:22:56.876Z,2.30
2019-02-06T16:25:40.793Z,3.60
2019-02-06T16:28:42.827Z,6.23
2019-02-06T16:31:17.316Z,3.00
2019-02-06T16:33:51.765Z,5.20
2019-02-06T16:36:32.429Z,4.43
2019-02-06T16:39:09.828Z,3.60
2019-02-06T16:42:24.291Z,4.93
2019-02-06T16:45:04.696Z,3.23
2019-02-06T16:47:45.674Z,4.60
2019-02-06T16:50:12.308Z,3.60
2019-02-06T16:52:58.540Z,5.23
2019-02-06T16:55:53.988Z,4.40
2019-02-06T16:58:37.582Z,8.90
2019-02-06T17:01:27.013Z,5.17
2019-02-06T17:04:02.037Z,2.80
2019-02-06T17:06:39.541Z,4.80
2019-02-06T17:09:28.024Z,4.43
2019-02-06T17:12:08.490Z,2.90
2019-02-06T17:14:42.943Z,3.37
2019-02-06T17:17:14.536Z,3.07
2019-02-06T17:19:48.526Z,3.03
2019-02-06T17:22:35.284Z,2.97
2019-02-06T17:25:36.791Z,2.70
2019-02-06T17:28:11.275Z,4.90
2019-02-06T17:30:58.085Z,9.87
2019-02-06T17:33:38.379Z,4.17
2019-02-06T17:36:25.276Z,5.33
2019-02-06T17:39:11.930Z,4.60
2019-02-06T17:42:15.107Z,2.67
2019-02-06T17:44:52.871Z,3.07
2019-02-06T17:47:24.531Z,3.20
2019-02-06T17:50:11.177Z,4.27
2019-02-06T17:53:00.976Z,4.77
2019-02-06T17:55:29.562Z,4.10
2019-02-06T17:57:58.100Z,6.37
2019-02-06T18:00:37.973Z,7.40
2019-02-06T18:03:09.962Z,5.37
2019-02-06T18:05:40.234Z,6.60
2019-02-06T18:08:08.913Z,13.67
2019-02-06T18:10:37.530Z,6.37
2019-02-06T18:13:07.087Z,6.57
2019-02-06T18:15:35.802Z,5.97
2019-02-06T18:18:05.907Z,3.17
2019-02-06T18:20:34.567Z,2.80
2019-02-06T18:23:03.451Z,5.63
2019-02-06T18:25:33.206Z,6.35
2019-02-06T18:28:02.104Z,4.22
2019-02-06T18:30:32.189Z,6.03
2019-02-06T18:33:01.520Z,5.10
2019-02-06T18:35:29.806Z,3.70
2019-02-06T18:37:58.568Z,2.37
2019-02-06T18:40:27.533Z,3.60
2019-02-06T18:42:57.706Z,4.17
2019-02-06T18:45:27.935Z,4.08
2019-02-06T18:47:59.749Z,2.40
2019-02-06T18:50:31.217Z,2.10
2019-02-06T18:53:00.558Z,3.57
2019-02-06T18:55:29.078Z,4.50
2019-02-06T18:57:57.786Z,3.53
2019-02-06T19:00:32.447Z,5.07
2019-02-06T19:03:03.684Z,3.10
2019-02-06T19:05:38.198Z,4.53
2019-02-06T19:08:07.725Z,2.40
2019-02-06T19:10:36.317Z,1.85
2019-02-06T19:13:05.486Z,3.22
2019-02-06T19:15:34.228Z,2.10
2019-02-06T19:18:02.878Z,2.77
2019-02-06T19:20:31.541Z,4.47
2019-02-06T19:23:00.047Z,3.07
2019-02-06T19:25:28.658Z,3.45
2019-02-06T19:27:57.299Z,6.47
2019-02-06T19:30:31.489Z,1.43
2019-02-06T19:33:00.372Z,3.55
2019-02-06T19:35:28.969Z,4.60
2019-02-06T19:37:57.483Z,3.37
2019-02-06T19:40:26.095Z,4.20
2019-02-06T19:43:01.948Z,5.50
2019-02-06T19:45:24.782Z,3.10
2019-02-06T19:47:53.732Z,3.25
2019-02-06T19:50:34.107Z,2.45
2019-02-06T19:53:02.723Z,2.85
2019-02-06T19:55:31.239Z,2.98
2019-02-06T19:58:19.192Z,2.83
2019-02-06T20:00:48.038Z,3.30
2019-02-06T20:03:16.630Z,5.20
2019-02-06T20:05:45.266Z,1.62
2019-02-06T20:08:14.458Z,3.10
2019-02-06T20:10:51.131Z,4.22
2019-02-06T20:13:19.723Z,4.95
2019-02-06T20:15:48.531Z,3.77
2019-02-06T20:18:17.102Z,4.45
2019-02-06T20:20:45.657Z,2.12
2019-02-06T20:23:14.202Z,4.80
2019-02-06T20:25:42.972Z,5.08
2019-02-06T20:28:11.626Z,4.72
2019-02-06T20:30:40.202Z,4.47
2019-02-06T20:33:08.789Z,3.58
2019-02-06T20:35:37.737Z,7.03
2019-02-06T20:38:06.327Z,2.95
2019-02-06T20:40:37.392Z,2.75
2019-02-06T20:43:06.020Z,1.45
2019-02-06T20:45:34.614Z,4.92
2019-02-06T20:48:03.200Z,2.25
2019-02-06T20:50:34.325Z,2.30
2019-02-06T20:53:03.080Z,3.95
2019-02-06T20:55:31.934Z,2.00
2019-02-06T20:58:00.542Z,3.35
2019-02-06T21:00:36.660Z,2.10
2019-02-06T21:03:05.838Z,4.65
2019-02-06T21:05:34.599Z,2.65
2019-02-06T21:08:03.482Z,3.62
2019-02-06T21:10:34.838Z,4.42
2019-02-06T21:13:03.416Z,2.98
2019-02-06T21:15:32.897Z,2.62
2019-02-06T21:18:01.615Z,3.40
2019-02-06T21:20:30.403Z,3.47
2019-02-06T21:22:59.331Z,4.92
2019-02-06T21:25:28.130Z,4.15
2019-02-06T21:28:16.054Z,1.82
2019-02-06T21:30:46.911Z,3.50
2019-02-06T21:33:14.968Z,3.47
2019-02-06T21:35:43.703Z,3.37
2019-02-06T21:38:12.222Z,3.27
2019-02-06T21:40:40.822Z,5.45
2019-02-06T21:43:09.369Z,1.95
2019-02-06T21:45:38.091Z,3.30
2019-02-06T21:48:46.729Z,3.30
2019-02-06T21:51:34.715Z,3.15
2019-02-06T21:54:03.543Z,3.65
2019-02-06T21:56:32.080Z,3.15
2019-02-06T21:59:00.527Z,1.30
2019-02-06T22:01:29.050Z,4.95
2019-02-06T22:03:57.596Z,4.62
2019-02-06T22:06:26.219Z,3.02
2019-02-06T22:08:54.807Z,2.67
2019-02-06T22:11:23.414Z,2.33
2019-02-06T22:13:55.188Z,3.67
2019-02-06T22:16:41.603Z,2.67
2019-02-06T22:19:10.115Z,2.08
2019-02-06T22:21:39.024Z,5.22
2019-02-06T22:24:07.598Z,2.85
2019-02-06T22:26:36.261Z,3.25
2019-02-06T22:29:04.942Z,2.05
2019-02-06T22:31:33.474Z,2.33
2019-02-06T22:34:01.996Z,4.92
2019-02-06T22:36:31.478Z,3.12
2019-02-06T22:39:00.116Z,3.67
2019-02-06T22:41:28.716Z,4.17
2019-02-06T22:44:06.200Z,1.65
2019-02-06T22:46:27.433Z,2.62
2019-02-06T22:48:56.278Z,3.80
2019-02-06T22:51:26.498Z,1.17
2019-02-06T22:53:55.098Z,2.37
2019-02-06T22:56:23.697Z,4.97
2019-02-06T22:58:52.218Z,2.55
2019-02-06T23:04:19.930Z,3.50
2019-02-06T23:06:48.706Z,3.65
2019-02-06T23:09:17.157Z,2.50
2019-02-06T23:12:04.948Z,2.55
2019-02-06T23:14:33.602Z,2.67
2019-02-06T23:17:02.194Z,1.70
2019-02-06T23:19:30.878Z,4.85
2019-02-06T23:21:59.470Z,2.42
2019-02-06T23:24:28.071Z,1.40
2019-02-06T23:26:56.602Z,3.35
2019-02-06T23:29:25.118Z,2.58
2019-02-06T23:31:53.671Z,1.65
2019-02-06T23:34:22.255Z,3.37
2019-02-06T23:36:50.759Z,3.65
2019-02-06T23:39:19.370Z,4.97
2019-02-06T23:41:47.998Z,1.70
2019-02-06T23:44:36.232Z,5.15
2019-02-06T23:47:04.832Z,1.90
2019-02-06T23:49:33.410Z,1.75
2019-02-06T23:52:01.954Z,4.05
2019-02-06T23:54:30.542Z,3.58
2019-02-06T23:57:00.722Z,2.45
2019-02-06T23:59:29.310Z,4.28
